createdAt,value
2023-02-06T00:02:45.104Z,9.35
2023-02-06T00:06:57.780Z,9.95
2023-02-06T00:11:14.719Z,2.17
2023-02-06T00:15:28.259Z,0.95
2023-02-06T00:19:41.096Z,1.85
2023-02-06T00:24:00.652Z,5.93
2023-02-06T00:28:15.562Z,1.80
2023-02-06T00:32:28.014Z,3.63
2023-02-06T00:36:40.563Z,2.78
2023-02-06T00:40:53.534Z,8.48
2023-02-06T00:45:06.516Z,11.48
2023-02-06T00:49:19.127Z,3.20
2023-02-06T00:53:31.542Z,5.50
2023-02-06T00:57:43.917Z,11.13
2023-02-06T01:01:56.448Z,3.20
2023-02-06T01:06:09.409Z,2.83
2023-02-06T01:10:22.169Z,10.70
2023-02-06T01:14:34.440Z,3.08
2023-02-06T01:18:47.409Z,1.98
2023-02-06T01:22:59.857Z,3.60
2023-02-06T01:27:12.187Z,1.80
2023-02-06T01:31:30.090Z,1.23
2023-02-06T01:35:42.400Z,3.25
2023-02-06T01:39:54.761Z,2.22
2023-02-06T01:44:24.363Z,1.48
2023-02-06T01:48:54.265Z,2.92
2023-02-06T01:53:08.009Z,3.33
2023-02-06T01:57:21.535Z,4.10
2023-02-06T02:01:34.497Z,5.55
2023-02-06T02:05:51.010Z,1.98
2023-02-06T02:10:05.343Z,10.27
2023-02-06T02:14:18.418Z,8.50
2023-02-06T02:19:08.655Z,4.57
2023-02-06T02:23:48.027Z,4.50
2023-02-06T02:28:49.758Z,5.82
2023-02-06T02:33:11.016Z,3.33
2023-02-06T02:37:36.180Z,2.72
2023-02-06T02:41:57.389Z,2.03
2023-02-06T02:46:29.316Z,1.52
2023-02-06T02:50:43.189Z,3.03
2023-02-06T02:54:56.141Z,3.17
2023-02-06T02:59:24.081Z,1.20
2023-02-06T03:03:40.685Z,1.55
2023-02-06T03:08:08.152Z,1.30
2023-02-06T03:12:35.746Z,1.30
2023-02-06T03:16:53.065Z,2.28
2023-02-06T03:21:08.855Z,4.68
2023-02-06T03:25:32.248Z,1.60
2023-02-06T03:29:47.674Z,3.17
2023-02-06T03:34:08.280Z,2.17
2023-02-06T03:38:21.001Z,0.73
2023-02-06T03:42:36.124Z,2.15
2023-02-06T03:46:50.457Z,1.90
2023-02-06T03:51:08.570Z,4.00
2023-02-06T03:55:23.770Z,1.45
2023-02-06T03:59:36.315Z,2.47
2023-02-06T04:03:49.738Z,2.10
2023-02-06T04:08:02.122Z,1.70
2023-02-06T04:12:15.716Z,1.98
2023-02-06T04:16:28.160Z,1.45
2023-02-06T04:20:41.191Z,0.55
2023-02-06T04:24:53.529Z,2.38
2023-02-06T04:29:06.184Z,1.75
2023-02-06T04:33:18.811Z,1.13
2023-02-06T04:37:31.240Z,1.73
2023-02-06T04:41:43.503Z,0.82
2023-02-06T04:45:55.858Z,2.00
2023-02-06T04:50:08.729Z,2.45
2023-02-06T04:54:20.972Z,5.03
2023-02-06T04:58:34.313Z,3.88
2023-02-06T05:02:46.778Z,3.55
2023-02-06T05:06:59.007Z,8.73
2023-02-06T05:11:11.539Z,4.85
2023-02-06T05:15:23.877Z,1.77
2023-02-06T05:19:36.292Z,15.35
2023-02-06T05:23:48.600Z,2.08
2023-02-06T05:28:00.980Z,2.33
2023-02-06T05:32:13.399Z,1.60
2023-02-06T05:36:25.931Z,1.45
2023-02-06T05:40:39.343Z,2.00
2023-02-06T05:44:51.695Z,4.25
2023-02-06T05:49:05.377Z,2.95
2023-02-06T05:53:18.139Z,1.75
2023-02-06T05:57:30.434Z,2.80
2023-02-06T06:01:42.888Z,2.92
2023-02-06T06:05:56.014Z,3.08
2023-02-06T06:10:09.275Z,3.85
2023-02-06T06:14:21.888Z,3.28
2023-02-06T06:18:35.582Z,1.45
2023-02-06T06:22:48.045Z,4.03
2023-02-06T06:27:00.433Z,1.65
2023-02-06T06:31:13.545Z,4.93
2023-02-06T06:35:27.247Z,4.68
2023-02-06T06:39:39.720Z,5.18
2023-02-06T06:43:54.844Z,9.85
2023-02-06T06:48:07.242Z,1.75
2023-02-06T06:52:24.984Z,6.05
2023-02-06T06:56:38.126Z,3.70
2023-02-06T07:00:53.940Z,5.22
2023-02-06T07:05:07.416Z,6.15
2023-02-06T07:09:19.786Z,4.38
2023-02-06T07:13:32.152Z,6.97
2023-02-06T07:17:44.465Z,4.28
2023-02-06T07:21:56.914Z,6.90
2023-02-06T07:26:10.922Z,5.57
2023-02-06T07:30:23.645Z,10.55
2023-02-06T07:34:36.331Z,3.92
2023-02-06T07:38:49.145Z,2.55
2023-02-06T07:43:01.534Z,8.13
2023-02-06T07:47:19.648Z,5.10
2023-02-06T07:51:32.058Z,3.65
2023-02-06T07:55:44.439Z,11.13
2023-02-06T07:59:56.751Z,7.60
2023-02-06T08:04:09.334Z,2.10
2023-02-06T08:08:21.697Z,5.97
2023-02-06T08:12:34.002Z,3.55
2023-02-06T08:16:46.618Z,6.55
2023-02-06T08:21:06.289Z,9.10
2023-02-06T08:25:18.718Z,3.35
2023-02-06T08:29:32.480Z,7.15
2023-02-06T08:33:45.786Z,2.30
2023-02-06T08:38:01.209Z,4.55
2023-02-06T08:42:13.733Z,3.97
2023-02-06T08:46:29.900Z,2.13
2023-02-06T08:50:44.835Z,6.97
2023-02-06T08:54:57.401Z,3.00
2023-02-06T08:59:11.200Z,4.60
2023-02-06T09:03:23.569Z,13.35
2023-02-06T09:07:35.948Z,9.00
2023-02-06T09:11:48.418Z,8.45
2023-02-06T09:16:00.906Z,3.72
2023-02-06T09:20:13.621Z,2.15
2023-02-06T09:24:27.560Z,3.95
2023-02-06T09:28:40.226Z,3.50
2023-02-06T09:32:52.689Z,9.77
2023-02-06T09:37:06.395Z,4.45
2023-02-06T09:41:31.533Z,7.70
2023-02-06T09:45:43.945Z,9.90
2023-02-06T09:50:25.441Z,4.53
2023-02-06T09:55:07.197Z,6.10
2023-02-06T09:59:45.278Z,2.58
2023-02-06T10:04:25.715Z,2.67
2023-02-06T10:08:43.537Z,7.22
2023-02-06T10:13:05.493Z,4.75
2023-02-06T10:17:32.966Z,5.93
2023-02-06T10:22:03.940Z,3.53
2023-02-06T10:26:18.689Z,4.57
2023-02-06T10:31:09.388Z,7.40
2023-02-06T10:36:11.171Z,7.00
2023-02-06T10:40:41.951Z,5.57
2023-02-06T10:49:41.133Z,11.93
2023-02-06T10:54:04.905Z,6.22
2023-02-06T10:58:30.772Z,7.53
2023-02-06T11:03:06.636Z,3.20
2023-02-06T11:07:46.841Z,5.85
2023-02-06T11:12:01.448Z,8.98
2023-02-06T11:16:26.172Z,5.30
2023-02-06T11:20:42.110Z,12.45
2023-02-06T11:25:01.130Z,7.85
2023-02-06T11:29:37.294Z,4.00
2023-02-06T11:33:57.142Z,3.20
2023-02-06T11:38:21.639Z,5.30
2023-02-06T11:42:36.591Z,5.72
2023-02-06T11:46:49.095Z,8.20
2023-02-06T11:51:02.296Z,10.95
2023-02-06T11:55:26.936Z,7.35
2023-02-06T11:59:54.200Z,7.38
2023-02-06T12:04:23.946Z,7.78
2023-02-06T12:08:48.623Z,6.60
2023-02-06T12:13:20.463Z,7.32
2023-02-06T12:17:47.548Z,5.05
2023-02-06T12:22:18.264Z,7.82
2023-02-06T12:26:33.998Z,5.13
2023-02-06T12:30:55.937Z,6.85
2023-02-06T12:35:34.612Z,7.18
2023-02-06T12:39:48.469Z,7.05
2023-02-06T12:44:18.163Z,5.80
2023-02-06T12:48:44.695Z,9.10
2023-02-06T12:53:05.172Z,6.22
2023-02-06T12:57:28.529Z,6.22
2023-02-06T13:01:53.275Z,4.65
2023-02-06T13:06:19.067Z,6.90
2023-02-06T13:10:31.385Z,6.57
2023-02-06T13:14:50.726Z,7.03
2023-02-06T13:19:03.870Z,7.93
2023-02-06T13:23:16.746Z,6.18
2023-02-06T13:27:39.867Z,10.43
2023-02-06T13:32:11.334Z,8.48
2023-02-06T13:36:53.662Z,3.60
2023-02-06T13:41:16.042Z,7.43
2023-02-06T13:45:51.168Z,6.50
2023-02-06T13:50:47.871Z,6.35
2023-02-06T13:55:14.840Z,7.75
2023-02-06T13:59:34.977Z,3.83
2023-02-06T14:08:20.680Z,6.95
2023-02-06T14:12:44.769Z,4.85
2023-02-06T14:17:28.896Z,3.83
2023-02-06T14:21:57.031Z,6.15
2023-02-06T14:26:16.416Z,12.57
2023-02-06T14:30:54.010Z,5.57
2023-02-06T14:35:31.500Z,7.20
2023-02-06T14:39:49.627Z,11.07
2023-02-06T14:44:02.570Z,8.85
2023-02-06T14:48:31.024Z,14.77
2023-02-06T14:52:45.890Z,10.50
2023-02-06T14:57:29.656Z,4.35
2023-02-06T15:01:44.288Z,7.00
2023-02-06T15:06:07.719Z,4.70
2023-02-06T15:10:29.045Z,9.35
2023-02-06T15:14:58.015Z,3.88
2023-02-06T15:19:21.933Z,3.95
2023-02-06T15:23:56.094Z,11.25
2023-02-06T15:28:23.326Z,12.65
2023-02-06T15:32:40.055Z,9.80
2023-02-06T15:36:54.204Z,4.60
2023-02-06T15:41:08.885Z,7.35
2023-02-06T15:45:29.164Z,6.05
2023-02-06T15:49:44.479Z,7.32
2023-02-06T15:54:21.596Z,12.10
2023-02-06T15:58:34.988Z,5.82
2023-02-06T16:02:47.500Z,5.00
2023-02-06T16:07:24.829Z,7.07
2023-02-06T16:11:46.450Z,3.97
2023-02-06T16:16:17.220Z,8.25
2023-02-06T16:20:32.589Z,8.25
2023-02-06T16:24:45.582Z,21.85
2023-02-06T16:29:16.691Z,5.68
2023-02-06T16:33:39.809Z,6.05
2023-02-06T16:37:54.886Z,5.30
2023-02-06T16:42:07.496Z,5.50
2023-02-06T16:46:23.704Z,8.88
2023-02-06T16:50:37.302Z,15.02
2023-02-06T16:54:50.446Z,15.43
2023-02-06T16:59:02.726Z,8.38
2023-02-06T17:03:17.616Z,5.32
2023-02-06T17:07:32.103Z,5.20
2023-02-06T17:11:44.570Z,11.63
2023-02-06T17:15:56.954Z,9.10
2023-02-06T17:20:31.144Z,10.07
2023-02-06T17:24:44.199Z,5.30
2023-02-06T17:28:56.523Z,10.30
2023-02-06T17:33:09.561Z,7.25
2023-02-06T17:37:22.017Z,7.18
2023-02-06T17:41:36.634Z,4.75
2023-02-06T17:45:49.896Z,5.05
2023-02-06T17:50:02.396Z,9.90
2023-02-06T17:54:15.792Z,7.70
2023-02-06T17:58:29.685Z,29.35
2023-02-06T18:02:43.491Z,14.55
2023-02-06T18:06:55.941Z,15.05
2023-02-06T18:11:22.185Z,10.13
2023-02-06T18:15:34.610Z,16.70
2023-02-06T18:19:48.664Z,5.60
2023-02-06T18:24:00.970Z,33.67
2023-02-06T18:28:17.875Z,6.18
2023-02-06T18:32:30.903Z,6.47
2023-02-06T18:36:43.248Z,6.00
2023-02-06T18:40:55.709Z,9.48
2023-02-06T18:45:08.851Z,8.98
2023-02-06T18:49:21.840Z,14.82
2023-02-06T18:53:34.206Z,21.23
2023-02-06T18:57:46.744Z,9.75
2023-02-06T19:01:59.176Z,21.73
2023-02-06T19:06:17.568Z,17.70
2023-02-06T19:10:30.105Z,9.77
2023-02-06T19:14:42.499Z,9.80
2023-02-06T19:18:54.897Z,15.27
2023-02-06T19:23:07.208Z,23.30
2023-02-06T19:27:23.915Z,17.42
2023-02-06T19:31:39.341Z,15.63
2023-02-06T19:35:52.561Z,6.53
2023-02-06T19:40:06.614Z,13.02
2023-02-06T19:44:19.728Z,11.15
2023-02-06T19:48:32.655Z,26.17
2023-02-06T19:52:45.257Z,29.90
2023-02-06T19:57:00.810Z,30.00
2023-02-06T20:01:16.043Z,26.90
2023-02-06T20:05:28.542Z,20.77
2023-02-06T20:09:49.570Z,25.55
2023-02-06T20:14:02.294Z,35.92
2023-02-06T20:18:15.051Z,21.23
2023-02-06T20:22:27.750Z,25.92
2023-02-06T20:26:42.899Z,16.10
2023-02-06T20:30:55.398Z,18.98
2023-02-06T20:35:07.990Z,17.05
2023-02-06T20:39:21.254Z,13.93
2023-02-06T20:43:34.484Z,17.10
2023-02-06T20:47:47.669Z,27.33
2023-02-06T20:52:00.136Z,17.48
2023-02-06T20:56:15.592Z,15.95
2023-02-06T21:00:28.153Z,12.45
2023-02-06T21:04:40.632Z,9.98
2023-02-06T21:08:57.594Z,12.68
2023-02-06T21:13:09.956Z,18.27
2023-02-06T21:17:22.201Z,12.77
2023-02-06T21:21:35.485Z,13.05
2023-02-06T21:25:55.396Z,13.77
2023-02-06T21:30:08.980Z,15.82
2023-02-06T21:34:23.895Z,9.50
2023-02-06T21:38:37.010Z,5.35
2023-02-06T21:42:49.853Z,17.42
2023-02-06T21:47:02.183Z,9.73
2023-02-06T21:51:16.975Z,10.90
2023-02-06T21:55:32.897Z,8.85
2023-02-06T21:59:46.101Z,9.18
2023-02-06T22:03:59.064Z,7.15
2023-02-06T22:08:11.615Z,17.15
2023-02-06T22:12:23.952Z,32.22
2023-02-06T22:16:36.959Z,9.95
2023-02-06T22:20:49.353Z,8.07
2023-02-06T22:25:01.764Z,10.95
2023-02-06T22:29:16.284Z,10.63
2023-02-06T22:33:28.566Z,24.73
2023-02-06T22:37:43.067Z,23.60
2023-02-06T22:41:56.575Z,17.17
2023-02-06T22:46:09.888Z,32.55
2023-02-06T22:50:22.565Z,21.60
2023-02-06T22:54:34.953Z,23.73
2023-02-06T22:58:48.660Z,27.45
2023-02-06T23:03:01.026Z,11.80
2023-02-06T23:07:13.335Z,13.30
2023-02-06T23:11:26.212Z,8.18
2023-02-06T23:15:41.899Z,19.02
2023-02-06T23:19:54.472Z,10.75
2023-02-06T23:24:08.613Z,16.92
2023-02-06T23:28:22.520Z,10.25
2023-02-06T23:32:34.876Z,7.82
2023-02-06T23:36:47.679Z,16.83
2023-02-06T23:41:09.063Z,9.15
2023-02-06T23:45:21.595Z,7.93
2023-02-06T23:49:34.110Z,6.07
2023-02-06T23:53:47.359Z,5.32
2023-02-06T23:57:59.838Z,5.35
